createdAt,value
2023-05-09T00:00:58.796Z,95467.00
2023-05-09T00:01:58.839Z,95465.00
2023-05-09T00:02:58.853Z,95461.00
2023-05-09T00:03:59.750Z,95465.00
2023-05-09T00:04:58.817Z,95461.00
2023-05-09T00:05:58.830Z,95463.00
2023-05-09T00:06:58.847Z,95461.00
2023-05-09T00:07:58.874Z,95461.00
2023-05-09T00:08:58.858Z,95459.00
2023-05-09T00:09:58.872Z,95453.00
2023-05-09T00:10:59.000Z,95453.00
2023-05-09T00:11:58.882Z,95451.00
2023-05-09T00:12:58.991Z,95449.00
2023-05-09T00:13:58.904Z,95447.00
2023-05-09T00:14:58.913Z,95447.00
2023-05-09T00:15:58.932Z,95443.00
2023-05-09T00:16:58.982Z,95445.00
2023-05-09T00:17:59.003Z,95443.00
2023-05-09T00:18:58.961Z,95443.00
2023-05-09T00:19:58.969Z,95443.00
2023-05-09T00:20:58.986Z,95443.00
2023-05-09T00:21:58.996Z,95443.00
2023-05-09T00:22:59.027Z,95441.00
2023-05-09T00:23:59.015Z,95441.00
2023-05-09T00:24:59.043Z,95441.00
2023-05-09T00:25:59.043Z,95439.00
2023-05-09T00:26:59.177Z,95439.00
2023-05-09T00:27:59.081Z,95437.00
2023-05-09T00:28:59.086Z,95435.00
2023-05-09T00:29:59.088Z,95435.00
2023-05-09T00:30:59.098Z,95435.00
2023-05-09T00:31:59.164Z,95431.00
2023-05-09T00:32:59.164Z,95429.00
2023-05-09T00:33:59.132Z,95429.00
2023-05-09T00:34:59.149Z,95429.00
2023-05-09T00:35:59.160Z,95429.00
2023-05-09T00:36:59.175Z,95429.00
2023-05-09T00:37:59.248Z,95429.00
2023-05-09T00:38:59.270Z,95427.00
2023-05-09T00:39:59.321Z,95427.00
2023-05-09T00:40:59.361Z,95425.00
2023-05-09T00:41:59.422Z,95423.00
2023-05-09T00:42:59.573Z,95421.00
2023-05-09T00:43:59.493Z,95421.00
2023-05-09T00:44:59.546Z,95421.00
2023-05-09T00:45:59.625Z,95421.00
2023-05-09T00:46:59.641Z,95419.00
2023-05-09T00:47:59.782Z,95419.00
2023-05-09T00:48:59.712Z,95419.00
2023-05-09T00:49:59.754Z,95421.00
2023-05-09T00:50:59.827Z,95421.00
2023-05-09T00:51:59.830Z,95421.00
2023-05-09T00:52:59.877Z,95419.00
2023-05-09T00:53:59.919Z,95421.00
2023-05-09T00:54:59.968Z,95419.00
2023-05-09T00:56:00.026Z,95419.00
2023-05-09T00:57:00.058Z,95421.00
2023-05-09T00:58:00.150Z,95421.00
2023-05-09T00:59:00.296Z,95421.00
2023-05-09T01:00:00.224Z,95419.00
2023-05-09T01:01:00.281Z,95423.00
2023-05-09T01:02:00.310Z,95421.00
2023-05-09T01:03:00.454Z,95419.00
2023-05-09T01:04:00.387Z,95421.00
2023-05-09T01:05:00.451Z,95419.00
2023-05-09T01:06:00.486Z,95419.00
2023-05-09T01:07:00.536Z,95416.00
2023-05-09T01:08:00.588Z,95416.00
2023-05-09T01:09:00.640Z,95416.00
2023-05-09T01:10:00.677Z,95414.00
2023-05-09T01:11:00.733Z,95414.00
2023-05-09T01:12:00.781Z,95412.00
2023-05-09T01:13:00.879Z,95414.00
2023-05-09T01:14:00.886Z,95412.00
2023-05-09T01:15:01.071Z,95414.00
2023-05-09T01:16:01.010Z,95414.00
2023-05-09T01:17:01.035Z,95414.00
2023-05-09T01:18:01.116Z,95414.00
2023-05-09T01:19:01.160Z,95414.00
2023-05-09T01:20:01.210Z,95414.00
2023-05-09T01:21:01.231Z,95414.00
2023-05-09T01:22:01.273Z,95414.00
2023-05-09T01:23:01.331Z,95412.00
2023-05-09T01:24:01.365Z,95412.00
2023-05-09T01:25:01.426Z,95412.00
2023-05-09T01:26:01.473Z,95410.00
2023-05-09T01:27:01.521Z,95406.00
2023-05-09T01:28:01.559Z,95408.00
2023-05-09T01:29:01.616Z,95406.00
2023-05-09T01:30:01.662Z,95408.00
2023-05-09T01:31:01.846Z,95408.00
2023-05-09T01:32:01.758Z,95408.00
2023-05-09T01:33:01.864Z,95408.00
2023-05-09T01:34:01.850Z,95406.00
2023-05-09T01:35:01.893Z,95406.00
2023-05-09T01:36:01.930Z,95408.00
2023-05-09T01:37:01.983Z,95408.00
2023-05-09T01:38:02.017Z,95408.00
2023-05-09T01:39:02.081Z,95404.00
2023-05-09T01:40:02.130Z,95404.00
2023-05-09T01:41:02.195Z,95404.00
2023-05-09T01:42:02.232Z,95404.00
2023-05-09T01:43:02.289Z,95406.00
2023-05-09T01:44:02.389Z,95406.00
2023-05-09T01:45:02.391Z,95406.00
2023-05-09T01:46:02.464Z,95408.00
2023-05-09T01:47:02.636Z,95404.00
2023-05-09T01:48:02.599Z,95406.00
2023-05-09T01:49:02.596Z,95404.00
2023-05-09T01:50:02.651Z,95406.00
2023-05-09T01:51:02.692Z,95402.00
2023-05-09T01:52:02.760Z,95402.00
2023-05-09T01:53:02.803Z,95404.00
2023-05-09T01:54:02.854Z,95400.00
2023-05-09T01:55:02.909Z,95400.00
2023-05-09T01:56:02.956Z,95400.00
2023-05-09T01:57:03.005Z,95400.00
2023-05-09T01:58:03.060Z,95400.00
2023-05-09T01:59:03.112Z,95400.00
2023-05-09T02:00:03.166Z,95398.00
2023-05-09T02:01:03.378Z,95400.00
2023-05-09T02:02:03.385Z,95396.00
2023-05-09T02:03:03.470Z,95398.00
2023-05-09T02:04:03.351Z,95396.00
2023-05-09T02:05:03.399Z,95398.00
2023-05-09T02:06:03.449Z,95396.00
2023-05-09T02:07:03.507Z,95398.00
2023-05-09T02:08:03.559Z,95396.00
2023-05-09T02:09:03.640Z,95398.00
2023-05-09T02:10:03.675Z,95388.00
2023-05-09T02:11:03.721Z,95388.00
2023-05-09T02:12:03.761Z,95386.00
2023-05-09T02:13:03.860Z,95386.00
2023-05-09T02:14:03.867Z,95386.00
2023-05-09T02:15:03.920Z,95386.00
2023-05-09T02:16:03.964Z,95384.00
2023-05-09T02:17:04.067Z,95382.00
2023-05-09T02:18:04.092Z,95382.00
2023-05-09T02:19:04.246Z,95378.00
2023-05-09T02:20:04.168Z,95380.00
2023-05-09T02:21:04.259Z,95378.00
2023-05-09T02:22:04.267Z,95378.00
2023-05-09T02:23:04.344Z,95378.00
2023-05-09T02:24:04.363Z,95378.00
2023-05-09T02:25:04.410Z,95380.00
2023-05-09T02:26:04.462Z,95378.00
2023-05-09T02:27:04.574Z,95378.00
2023-05-09T02:28:04.592Z,95378.00
2023-05-09T02:29:04.629Z,95376.00
2023-05-09T02:30:04.661Z,95376.00
2023-05-09T02:31:04.713Z,95376.00
2023-05-09T02:32:04.781Z,95376.00
2023-05-09T02:33:04.928Z,95374.00
2023-05-09T02:34:04.873Z,95374.00
2023-05-09T02:35:05.044Z,95374.00
2023-05-09T02:36:04.967Z,95370.00
2023-05-09T02:37:05.026Z,95374.00
2023-05-09T02:38:05.068Z,95374.00
2023-05-09T02:39:05.120Z,95374.00
2023-05-09T02:40:05.168Z,95372.00
2023-05-09T02:41:05.217Z,95374.00
2023-05-09T02:42:05.278Z,95372.00
2023-05-09T02:43:05.315Z,95367.00
2023-05-09T02:44:05.449Z,95367.00
2023-05-09T02:45:05.421Z,95367.00
2023-05-09T02:46:05.518Z,95365.00
2023-05-09T02:47:05.534Z,95365.00
2023-05-09T02:48:08.342Z,95365.00
2023-05-09T02:49:05.567Z,95365.00
2023-05-09T02:50:05.578Z,95361.00
2023-05-09T02:51:05.691Z,95361.00
2023-05-09T02:52:05.554Z,95359.00
2023-05-09T02:53:05.580Z,95359.00
2023-05-09T02:54:05.612Z,95359.00
2023-05-09T02:55:05.544Z,95357.00
2023-05-09T02:56:05.530Z,95357.00
2023-05-09T02:57:05.530Z,95357.00
2023-05-09T02:58:12.911Z,95355.00
2023-05-09T02:59:05.515Z,95357.00
2023-05-09T03:00:05.503Z,95355.00
2023-05-09T03:01:05.535Z,95355.00
2023-05-09T03:02:05.491Z,95355.00
2023-05-09T03:03:05.545Z,95355.00
2023-05-09T03:04:05.456Z,95355.00
2023-05-09T03:05:05.454Z,95355.00
2023-05-09T03:06:05.456Z,95355.00
2023-05-09T03:07:05.468Z,95357.00
2023-05-09T03:08:05.445Z,95355.00
2023-05-09T03:09:05.433Z,95353.00
2023-05-09T03:10:05.432Z,95355.00
2023-05-09T03:11:05.420Z,95353.00
2023-05-09T03:12:05.421Z,95353.00
2023-05-09T03:13:05.466Z,95353.00
2023-05-09T03:14:05.422Z,95355.00
2023-05-09T03:15:05.398Z,95355.00
2023-05-09T03:16:05.443Z,95357.00
2023-05-09T03:17:05.400Z,95357.00
2023-05-09T03:18:05.445Z,95357.00
2023-05-09T03:19:05.383Z,95357.00
2023-05-09T03:20:05.365Z,95355.00
2023-05-09T03:21:05.364Z,95357.00
2023-05-09T03:22:05.346Z,95355.00
2023-05-09T03:23:05.484Z,95359.00
2023-05-09T03:24:05.366Z,95359.00
2023-05-09T03:25:05.371Z,95359.00
2023-05-09T03:26:05.421Z,95359.00
2023-05-09T03:27:05.483Z,95357.00
2023-05-09T03:28:05.536Z,95359.00
2023-05-09T03:29:05.597Z,95359.00
2023-05-09T03:30:05.656Z,95357.00
2023-05-09T03:31:05.772Z,95355.00
2023-05-09T03:32:05.819Z,95353.00
2023-05-09T03:33:05.862Z,95353.00
2023-05-09T03:34:05.870Z,95353.00
2023-05-09T03:35:05.932Z,95355.00
2023-05-09T03:36:05.995Z,95353.00
2023-05-09T03:37:06.037Z,95355.00
2023-05-09T03:38:06.059Z,95353.00
2023-05-09T03:39:06.299Z,95353.00
2023-05-09T03:40:06.102Z,95353.00
2023-05-09T03:41:06.131Z,95351.00
2023-05-09T03:42:06.160Z,95351.00
2023-05-09T03:43:06.188Z,95349.00
2023-05-09T03:44:06.280Z,95347.00
2023-05-09T03:45:06.325Z,95345.00
2023-05-09T03:46:06.308Z,95345.00
2023-05-09T03:47:06.516Z,95345.00
2023-05-09T03:48:06.414Z,95343.00
2023-05-09T03:49:06.340Z,95343.00
2023-05-09T03:50:06.377Z,95341.00
2023-05-09T03:51:06.455Z,95339.00
2023-05-09T03:52:06.397Z,95343.00
2023-05-09T03:53:06.428Z,95339.00
2023-05-09T03:54:06.510Z,95343.00
2023-05-09T03:55:06.612Z,95341.00
2023-05-09T03:56:06.518Z,95343.00
2023-05-09T03:57:06.546Z,95343.00
2023-05-09T03:58:06.552Z,95345.00
2023-05-09T03:59:06.579Z,95343.00
2023-05-09T04:00:06.630Z,95345.00
2023-05-09T04:01:06.616Z,95347.00
2023-05-09T04:02:06.714Z,95347.00
2023-05-09T04:03:06.710Z,95349.00
2023-05-09T04:04:06.764Z,95349.00
2023-05-09T04:05:06.704Z,95347.00
2023-05-09T04:06:06.736Z,95349.00
2023-05-09T04:07:06.748Z,95351.00
2023-05-09T04:08:06.773Z,95349.00
2023-05-09T04:09:06.800Z,95347.00
2023-05-09T04:10:06.824Z,95347.00
2023-05-09T04:11:06.975Z,95347.00
2023-05-09T04:12:06.867Z,95349.00
2023-05-09T04:13:06.937Z,95349.00
2023-05-09T04:14:06.986Z,95349.00
2023-05-09T04:15:06.952Z,95349.00
2023-05-09T04:16:06.992Z,95349.00
2023-05-09T04:17:07.026Z,95351.00
2023-05-09T04:18:07.038Z,95349.00
2023-05-09T04:19:07.050Z,95351.00
2023-05-09T04:20:07.073Z,95351.00
2023-05-09T04:21:07.089Z,95351.00
2023-05-09T04:22:07.130Z,95351.00
2023-05-09T04:23:07.151Z,95353.00
2023-05-09T04:24:07.160Z,95353.00
2023-05-09T04:25:07.190Z,95351.00
2023-05-09T04:26:07.201Z,95355.00
2023-05-09T04:27:07.342Z,95353.00
2023-05-09T04:28:07.248Z,95351.00
2023-05-09T04:29:07.269Z,95353.00
2023-05-09T04:30:07.305Z,95353.00
2023-05-09T04:31:07.413Z,95353.00
2023-05-09T04:32:07.399Z,95349.00
2023-05-09T04:33:07.411Z,95351.00
2023-05-09T04:34:07.404Z,95351.00
2023-05-09T04:35:07.419Z,95351.00
2023-05-09T04:36:07.443Z,95351.00
2023-05-09T04:37:07.464Z,95351.00
2023-05-09T04:38:07.497Z,95349.00
2023-05-09T04:39:07.583Z,95351.00
2023-05-09T04:40:07.542Z,95347.00
2023-05-09T04:41:07.573Z,95351.00
2023-05-09T04:42:07.636Z,95351.00
2023-05-09T04:43:07.754Z,95353.00
2023-05-09T04:44:07.656Z,95355.00
2023-05-09T04:45:07.676Z,95357.00
2023-05-09T04:46:07.787Z,95357.00
2023-05-09T04:47:07.723Z,95357.00
2023-05-09T04:48:07.905Z,95357.00
2023-05-09T04:49:07.770Z,95359.00
2023-05-09T04:50:07.799Z,95359.00
2023-05-09T04:51:07.828Z,95357.00
2023-05-09T04:52:07.842Z,95355.00
2023-05-09T04:53:07.870Z,95355.00
2023-05-09T04:54:07.888Z,95349.00
2023-05-09T04:55:07.920Z,95349.00
2023-05-09T04:56:07.944Z,95351.00
2023-05-09T04:57:17.300Z,95345.00
2023-05-09T04:58:07.968Z,95343.00
2023-05-09T04:59:08.134Z,95343.00
2023-05-09T05:00:08.002Z,95339.00
2023-05-09T05:01:07.978Z,95337.00
2023-05-09T05:02:08.064Z,95337.00
2023-05-09T05:03:08.012Z,95337.00
2023-05-09T05:04:08.111Z,95335.00
2023-05-09T05:05:12.082Z,95335.00
2023-05-09T05:06:07.960Z,95335.00
2023-05-09T05:07:07.955Z,95337.00
2023-05-09T05:08:07.965Z,95337.00
2023-05-09T05:09:07.945Z,95335.00
2023-05-09T05:10:07.949Z,95335.00
2023-05-09T05:11:07.927Z,95335.00
2023-05-09T05:12:09.264Z,95337.00
2023-05-09T05:13:07.982Z,95335.00
2023-05-09T05:14:07.917Z,95337.00
2023-05-09T05:15:08.074Z,95337.00
2023-05-09T05:16:07.972Z,95339.00
2023-05-09T05:17:07.901Z,95343.00
2023-05-09T05:18:07.939Z,95337.00
2023-05-09T05:19:08.048Z,95337.00
2023-05-09T05:20:07.887Z,95339.00
2023-05-09T05:21:07.899Z,95337.00
2023-05-09T05:22:07.885Z,95335.00
2023-05-09T05:23:08.071Z,95333.00
2023-05-09T05:24:07.889Z,95335.00
2023-05-09T05:25:07.879Z,95329.00
2023-05-09T05:26:07.883Z,95331.00
2023-05-09T05:27:08.542Z,95329.00
2023-05-09T05:28:07.893Z,95325.00
2023-05-09T05:29:07.891Z,95327.00
2023-05-09T05:30:07.898Z,95325.00
2023-05-09T05:31:08.039Z,95329.00
2023-05-09T05:32:08.051Z,95331.00
2023-05-09T05:33:07.996Z,95329.00
2023-05-09T05:34:07.886Z,95327.00
2023-05-09T05:35:07.913Z,95329.00
2023-05-09T05:36:07.893Z,95329.00
2023-05-09T05:37:07.892Z,95333.00
2023-05-09T05:38:08.051Z,95329.00
2023-05-09T05:39:07.869Z,95333.00
2023-05-09T05:40:07.881Z,95333.00
2023-05-09T05:41:07.861Z,95333.00
2023-05-09T05:42:07.849Z,95331.00
2023-05-09T05:43:08.053Z,95331.00
2023-05-09T05:44:07.860Z,95331.00
2023-05-09T05:45:07.855Z,95331.00
2023-05-09T05:46:07.894Z,95335.00
2023-05-09T05:47:11.252Z,95333.00
2023-05-09T05:48:08.122Z,95331.00
2023-05-09T05:49:07.858Z,95331.00
2023-05-09T05:50:07.843Z,95329.00
2023-05-09T05:51:07.848Z,95329.00
2023-05-09T05:52:07.828Z,95329.00
2023-05-09T12:42:04.380Z,94710.00
2023-05-09T12:43:05.242Z,94704.00
2023-05-09T12:44:05.242Z,94702.00
2023-05-09T12:45:05.468Z,94698.00
2023-05-09T12:46:05.248Z,94696.00
2023-05-09T12:47:05.326Z,94694.00
2023-05-09T12:48:05.314Z,94696.00
2023-05-09T12:49:05.230Z,94696.00
2023-05-09T12:50:05.469Z,94694.00
2023-05-09T12:51:05.212Z,94690.00
2023-05-09T12:52:08.394Z,94690.00
2023-05-09T12:53:05.316Z,94684.00
2023-05-09T12:54:05.410Z,94686.00
2023-05-09T12:55:05.445Z,94682.00
2023-05-09T12:56:05.498Z,94682.00
2023-05-09T12:57:05.559Z,94680.00
2023-05-09T12:58:05.655Z,94678.00
2023-05-09T12:59:05.679Z,94676.00
2023-05-09T13:00:05.999Z,94672.00
2023-05-09T13:01:05.761Z,94672.00
2023-05-09T13:02:05.865Z,94672.00
2023-05-09T13:03:05.937Z,94671.00
2023-05-09T13:04:05.882Z,94669.00
2023-05-09T13:05:05.913Z,94667.00
2023-05-09T13:06:05.920Z,94665.00
2023-05-09T13:07:05.971Z,94663.00
2023-05-09T13:08:06.025Z,94661.00
2023-05-09T13:09:06.352Z,94659.00
2023-05-09T13:10:06.147Z,94657.00
2023-05-09T13:11:15.566Z,94653.00
2023-05-09T13:12:07.451Z,94651.00
2023-05-09T13:13:09.570Z,94649.00
2023-05-09T13:14:06.185Z,94649.00
2023-05-09T13:15:06.543Z,94643.00
2023-05-09T13:16:08.187Z,94645.00
2023-05-09T13:17:06.259Z,94643.00
2023-05-09T13:18:06.198Z,94639.00
2023-05-09T13:19:06.133Z,94633.00
2023-05-09T13:20:06.451Z,94631.00
2023-05-09T13:21:06.155Z,94629.00
2023-05-09T13:22:06.115Z,94625.00
2023-05-09T13:23:06.113Z,94616.00
2023-05-09T13:24:06.101Z,94618.00
2023-05-09T13:25:06.169Z,94616.00
2023-05-09T13:26:06.496Z,94625.00
2023-05-09T13:27:06.098Z,94618.00
2023-05-09T13:28:06.522Z,94616.00
2023-05-09T13:29:06.212Z,94610.00
2023-05-09T13:30:06.056Z,94612.00
2023-05-09T13:31:06.530Z,94608.00
2023-05-09T13:32:06.026Z,94604.00
2023-05-09T13:33:16.580Z,94602.00
2023-05-09T13:34:06.004Z,94604.00
2023-05-09T13:35:05.993Z,94602.00
2023-05-09T13:36:06.471Z,94600.00
2023-05-09T13:37:06.005Z,94598.00
2023-05-09T13:38:06.456Z,94594.00
2023-05-09T13:39:05.970Z,94598.00
2023-05-09T13:40:05.970Z,94596.00
2023-05-09T13:41:05.973Z,94592.00
2023-05-09T13:42:05.942Z,94594.00
2023-05-09T13:43:05.945Z,94590.00
2023-05-09T13:44:05.931Z,94586.00
2023-05-09T13:45:06.047Z,94588.00
2023-05-09T13:46:05.966Z,94584.00
2023-05-09T13:47:05.916Z,94580.00
2023-05-09T13:48:06.052Z,94580.00
2023-05-09T13:49:05.904Z,94578.00
2023-05-09T13:50:05.902Z,94580.00
2023-05-09T13:51:05.896Z,94582.00
2023-05-09T13:52:05.902Z,94576.00
2023-05-09T13:53:05.919Z,94576.00
2023-05-09T13:54:05.930Z,94572.00
2023-05-09T13:55:05.895Z,94570.00
2023-05-09T13:56:06.016Z,94574.00
2023-05-09T13:57:05.906Z,94574.00
2023-05-09T13:58:05.988Z,94572.00
2023-05-09T13:59:05.892Z,94568.00
2023-05-09T14:00:05.890Z,94568.00
2023-05-09T14:01:06.082Z,94566.00
2023-05-09T14:02:05.951Z,94564.00
2023-05-09T14:03:06.051Z,94559.00
2023-05-09T14:04:05.968Z,94559.00
2023-05-09T14:05:05.897Z,94557.00
2023-05-09T14:06:05.902Z,94555.00
2023-05-09T14:07:05.896Z,94553.00
2023-05-09T14:08:05.892Z,94553.00
2023-05-09T14:09:05.891Z,94551.00
2023-05-09T14:10:16.214Z,94545.00
2023-05-09T14:11:05.982Z,94545.00
2023-05-09T14:12:05.890Z,94545.00
2023-05-09T14:13:05.955Z,94543.00
2023-05-09T14:14:05.896Z,94543.00
2023-05-09T14:15:05.903Z,94537.00
2023-05-09T14:16:05.965Z,94539.00
2023-05-09T14:17:06.057Z,94539.00
2023-05-09T14:18:05.955Z,94533.00
2023-05-09T14:19:05.931Z,94533.00
2023-05-09T14:20:05.931Z,94531.00
2023-05-09T14:21:05.936Z,94527.00
2023-05-09T14:22:05.932Z,94527.00
2023-05-09T14:23:05.930Z,94527.00
2023-05-09T14:24:05.934Z,94527.00
2023-05-09T14:25:05.948Z,94525.00
2023-05-09T14:26:05.957Z,94523.00
2023-05-09T14:27:05.959Z,94523.00
2023-05-09T14:28:05.963Z,94523.00
2023-05-09T14:29:05.975Z,94521.00
2023-05-09T14:30:06.000Z,94521.00
2023-05-09T14:31:06.021Z,94519.00
2023-05-09T14:32:05.992Z,94517.00
2023-05-09T14:33:06.117Z,94516.00
2023-05-09T14:34:06.004Z,94516.00
2023-05-09T14:35:06.054Z,94514.00
2023-05-09T14:36:06.001Z,94512.00
2023-05-09T14:37:05.997Z,94510.00
2023-05-09T14:38:06.001Z,94510.00
2023-05-09T14:39:06.010Z,94508.00
2023-05-09T14:40:06.011Z,94506.00
2023-05-09T14:41:06.021Z,94506.00
2023-05-09T14:42:06.020Z,94506.00
2023-05-09T14:43:06.021Z,94508.00
2023-05-09T14:44:06.035Z,94506.00
2023-05-09T14:45:06.046Z,94506.00
2023-05-09T14:46:06.054Z,94506.00
2023-05-09T14:47:06.185Z,94506.00
2023-05-09T14:48:06.125Z,94498.00
2023-05-09T14:49:06.221Z,94498.00
2023-05-09T14:50:06.091Z,94498.00
2023-05-09T14:51:06.098Z,94496.00
2023-05-09T14:52:06.112Z,94498.00
2023-05-09T14:53:06.112Z,94498.00
2023-05-09T14:54:06.127Z,94496.00
2023-05-09T14:55:06.134Z,94492.00
2023-05-09T14:56:06.138Z,94492.00
2023-05-09T14:57:06.152Z,94490.00
2023-05-09T14:58:06.167Z,94486.00
2023-05-09T14:59:06.164Z,94486.00
2023-05-09T15:00:19.743Z,94486.00
2023-05-09T15:01:06.208Z,94486.00
2023-05-09T15:02:06.210Z,94486.00
2023-05-09T15:03:06.260Z,94486.00
2023-05-09T15:04:06.233Z,94482.00
2023-05-09T15:05:06.360Z,94484.00
2023-05-09T15:06:06.251Z,94484.00
2023-05-09T15:07:06.251Z,94478.00
2023-05-09T15:08:06.274Z,94482.00
2023-05-09T15:09:06.286Z,94480.00
2023-05-09T15:10:06.515Z,94478.00
2023-05-09T15:11:06.304Z,94478.00
2023-05-09T15:12:06.330Z,94472.00
2023-05-09T15:13:06.377Z,94472.00
2023-05-09T15:14:06.344Z,94470.00
2023-05-09T15:15:06.360Z,94472.00
2023-05-09T15:16:06.397Z,94468.00
2023-05-09T15:17:06.423Z,94468.00
2023-05-09T15:18:06.390Z,94468.00
2023-05-09T15:19:06.396Z,94466.00
2023-05-09T15:20:06.412Z,94462.00
2023-05-09T15:21:06.558Z,94462.00
2023-05-09T15:22:06.430Z,94461.00
2023-05-09T15:23:06.465Z,94461.00
2023-05-09T15:24:06.445Z,94461.00
2023-05-09T15:25:06.495Z,94461.00
2023-05-09T15:26:06.468Z,94457.00
2023-05-09T15:27:06.470Z,94457.00
2023-05-09T15:28:06.486Z,94457.00
2023-05-09T15:29:06.505Z,94453.00
2023-05-09T15:30:06.517Z,94453.00
2023-05-09T15:31:06.629Z,94457.00
2023-05-09T15:32:06.551Z,94457.00
2023-05-09T15:33:06.601Z,94455.00
2023-05-09T15:34:06.562Z,94453.00
2023-05-09T15:35:06.585Z,94455.00
2023-05-09T15:36:06.583Z,94453.00
2023-05-09T15:37:06.721Z,94447.00
2023-05-09T15:38:06.600Z,94445.00
2023-05-09T15:39:06.601Z,94445.00
2023-05-09T15:40:06.640Z,94445.00
2023-05-09T15:41:06.637Z,94445.00
2023-05-09T15:42:06.662Z,94443.00
2023-05-09T15:43:08.257Z,94441.00
2023-05-09T15:44:06.724Z,94439.00
2023-05-09T15:45:06.747Z,94437.00
2023-05-09T15:46:06.763Z,94439.00
2023-05-09T15:47:06.754Z,94437.00
2023-05-09T15:48:06.829Z,94437.00
2023-05-09T15:49:06.770Z,94435.00
2023-05-09T15:50:06.787Z,94439.00
2023-05-09T15:51:06.812Z,94437.00
2023-05-09T15:52:06.804Z,94435.00
2023-05-09T15:53:07.000Z,94435.00
2023-05-09T15:54:06.829Z,94435.00
2023-05-09T15:55:06.987Z,94433.00
2023-05-09T15:56:06.843Z,94431.00
2023-05-09T15:57:06.870Z,94433.00
2023-05-09T15:58:06.860Z,94429.00
2023-05-09T15:59:06.882Z,94427.00
2023-05-09T16:00:06.896Z,94429.00
2023-05-09T16:01:06.884Z,94425.00
2023-05-09T16:02:07.010Z,94425.00
2023-05-09T16:03:06.944Z,94425.00
2023-05-09T16:04:06.925Z,94423.00
2023-05-09T16:05:06.921Z,94423.00
2023-05-09T16:06:06.943Z,94423.00
2023-05-09T16:07:06.949Z,94423.00
2023-05-09T16:08:06.960Z,94425.00
2023-05-09T16:09:07.143Z,94423.00
2023-05-09T16:10:06.984Z,94421.00
2023-05-09T16:11:07.000Z,94421.00
2023-05-09T16:12:07.004Z,94421.00
2023-05-09T16:13:07.039Z,94419.00
2023-05-09T16:14:07.098Z,94419.00
2023-05-09T16:15:07.040Z,94419.00
2023-05-09T16:16:07.100Z,94417.00
2023-05-09T16:17:07.076Z,94417.00
2023-05-09T16:18:07.096Z,94412.00
2023-05-09T16:19:07.109Z,94412.00
2023-05-09T16:20:07.143Z,94414.00
2023-05-09T16:21:07.222Z,94412.00
2023-05-09T16:22:07.263Z,94412.00
2023-05-09T16:23:07.320Z,94414.00
2023-05-09T16:24:07.379Z,94414.00
2023-05-09T16:25:07.581Z,94410.00
2023-05-09T16:26:08.031Z,94412.00
2023-05-09T16:27:07.597Z,94412.00
2023-05-09T16:28:07.643Z,94412.00
2023-05-09T16:29:07.715Z,94414.00
2023-05-09T16:30:07.798Z,94414.00
2023-05-09T16:31:07.911Z,94412.00
2023-05-09T16:32:07.996Z,94414.00
2023-05-09T16:33:08.036Z,94414.00
2023-05-09T16:34:08.098Z,94412.00
2023-05-09T16:35:08.187Z,94414.00
2023-05-09T16:36:08.212Z,94412.00
2023-05-09T16:37:08.292Z,94414.00
2023-05-09T16:38:08.348Z,94412.00
2023-05-09T16:39:08.418Z,94414.00
2023-05-09T16:40:08.490Z,94415.00
2023-05-09T16:41:08.694Z,94412.00
2023-05-09T16:42:08.649Z,94412.00
2023-05-09T16:43:08.710Z,94410.00
2023-05-09T16:44:08.787Z,94410.00
2023-05-09T16:45:08.847Z,94402.00
2023-05-09T16:46:08.954Z,94402.00
2023-05-09T16:47:09.029Z,94404.00
2023-05-09T16:48:09.131Z,94404.00
2023-05-09T16:49:09.146Z,94404.00
2023-05-09T16:50:09.219Z,94406.00
2023-05-09T16:51:09.294Z,94404.00
2023-05-09T16:52:09.390Z,94400.00
2023-05-09T16:53:09.401Z,94402.00
2023-05-09T16:54:09.439Z,94402.00
2023-05-09T16:55:09.490Z,94402.00
2023-05-09T16:56:09.564Z,94400.00
2023-05-09T16:57:09.790Z,94400.00
2023-05-09T16:58:09.641Z,94400.00
2023-05-09T16:59:11.300Z,94404.00
2023-05-09T17:00:09.853Z,94398.00
2023-05-09T17:01:09.947Z,94404.00
2023-05-09T17:02:09.902Z,94400.00
2023-05-09T17:03:09.990Z,94400.00
2023-05-09T17:04:10.077Z,94400.00
2023-05-09T17:05:10.111Z,94402.00
2023-05-09T17:06:10.186Z,94402.00
2023-05-09T17:07:10.250Z,94402.00
2023-05-09T17:08:10.330Z,94402.00
2023-05-09T17:09:10.411Z,94398.00
2023-05-09T17:10:10.482Z,94402.00
2023-05-09T17:11:10.559Z,94400.00
2023-05-09T17:12:10.684Z,94398.00
2023-05-09T17:13:10.851Z,94400.00
2023-05-09T17:14:10.785Z,94400.00
2023-05-09T17:15:10.857Z,94400.00
2023-05-09T17:16:11.167Z,94402.00
2023-05-09T17:17:11.010Z,94402.00
2023-05-09T17:18:12.237Z,94404.00
2023-05-09T17:19:11.106Z,94400.00
2023-05-09T17:20:11.116Z,94402.00
2023-05-09T17:21:11.132Z,94398.00
2023-05-09T17:22:11.147Z,94398.00
2023-05-09T17:23:11.148Z,94396.00
2023-05-09T17:24:11.181Z,94398.00
2023-05-09T17:25:11.177Z,94394.00
2023-05-09T17:26:11.203Z,94394.00
2023-05-09T17:27:11.200Z,94396.00
2023-05-09T17:28:11.207Z,94392.00
2023-05-09T17:29:11.342Z,94390.00
2023-05-09T17:30:11.239Z,94392.00
2023-05-09T17:31:11.282Z,94388.00
2023-05-09T17:32:11.257Z,94386.00
2023-05-09T17:33:11.268Z,94390.00
2023-05-09T17:34:11.304Z,94388.00
2023-05-09T17:35:11.278Z,94386.00
2023-05-09T17:36:11.286Z,94388.00
2023-05-09T17:37:11.299Z,94386.00
2023-05-09T17:38:11.353Z,94384.00
2023-05-09T17:39:11.315Z,94384.00
2023-05-09T17:40:11.345Z,94382.00
2023-05-09T17:41:11.346Z,94380.00
2023-05-09T17:42:12.286Z,94382.00
2023-05-09T17:43:11.401Z,94380.00
2023-05-09T17:44:11.475Z,94378.00
2023-05-09T17:45:11.679Z,94378.00
2023-05-09T17:46:11.645Z,94376.00
2023-05-09T17:47:11.687Z,94380.00
2023-05-09T17:48:11.762Z,94380.00
2023-05-09T17:49:11.839Z,94378.00
2023-05-09T17:50:11.918Z,94376.00
2023-05-09T17:51:11.988Z,94374.00
2023-05-09T17:52:12.072Z,94378.00
2023-05-09T17:53:12.146Z,94374.00
2023-05-09T17:54:12.209Z,94372.00
2023-05-09T17:55:12.294Z,94372.00
2023-05-09T17:56:12.372Z,94370.00
2023-05-09T17:57:12.447Z,94370.00
2023-05-09T17:58:12.609Z,94370.00
2023-05-09T17:59:12.598Z,94372.00
2023-05-09T18:00:12.762Z,94370.00
2023-05-09T18:01:12.906Z,94372.00
2023-05-09T18:02:12.779Z,94370.00
2023-05-09T18:03:12.949Z,94370.00
2023-05-09T18:04:12.937Z,94372.00
2023-05-09T18:05:13.002Z,94370.00
2023-05-09T18:06:13.081Z,94370.00
2023-05-09T18:07:13.149Z,94372.00
2023-05-09T18:08:13.223Z,94372.00
2023-05-09T18:09:13.302Z,94372.00
2023-05-09T18:10:13.609Z,94374.00
2023-05-09T18:11:13.452Z,94374.00
2023-05-09T18:12:13.517Z,94374.00
2023-05-09T18:13:13.592Z,94370.00
2023-05-09T18:14:13.653Z,94368.00
2023-05-09T18:15:13.704Z,94372.00
2023-05-09T18:16:13.867Z,94361.00
2023-05-09T18:17:13.996Z,94368.00
2023-05-09T18:18:15.038Z,94368.00
2023-05-09T18:19:14.794Z,94370.00
2023-05-09T18:20:14.361Z,94370.00
2023-05-09T18:21:14.126Z,94370.00
2023-05-09T18:22:14.256Z,94372.00
2023-05-09T18:23:14.244Z,94370.00
2023-05-09T18:24:16.326Z,94370.00
2023-05-09T18:25:14.306Z,94372.00
2023-05-09T18:26:14.316Z,94372.00
2023-05-09T18:27:14.317Z,94361.00
2023-05-09T18:28:14.325Z,94368.00
2023-05-09T18:29:14.334Z,94361.00
2023-05-09T18:30:14.470Z,94370.00
2023-05-09T18:31:14.384Z,94361.00
2023-05-09T18:32:14.389Z,94368.00
2023-05-09T18:33:14.491Z,94368.00
2023-05-09T18:34:14.399Z,94361.00